sensor_id;sensor_type;location;lat;lon;timestamp;temperature;humidity
4306;DHT22;2166;49.926;8.608;2023-01-05T00:00:21;10.40;84.30
4306;DHT22;2166;49.926;8.608;2023-01-05T00:02:50;10.40;84.10
4306;DHT22;2166;49.926;8.608;2023-01-05T00:05:46;10.40;83.90
4306;DHT22;2166;49.926;8.608;2023-01-05T00:08:14;10.50;83.90
4306;DHT22;2166;49.926;8.608;2023-01-05T00:10:47;10.50;83.70
4306;DHT22;2166;49.926;8.608;2023-01-05T00:13:35;10.50;83.90
4306;DHT22;2166;49.926;8.608;2023-01-05T00:16:33;10.50;84.20
4306;DHT22;2166;49.926;8.608;2023-01-05T00:19:23;10.50;84.30
4306;DHT22;2166;49.926;8.608;2023-01-05T00:22:13;10.50;84.20
4306;DHT22;2166;49.926;8.608;2023-01-05T00:25:12;10.50;84.10
4306;DHT22;2166;49.926;8.608;2023-01-05T00:27:44;10.50;84.20
4306;DHT22;2166;49.926;8.608;2023-01-05T00:30:21;10.50;84.50
4306;DHT22;2166;49.926;8.608;2023-01-05T00:32:51;10.50;84.70
4306;DHT22;2166;49.926;8.608;2023-01-05T00:35:23;10.50;84.80
4306;DHT22;2166;49.926;8.608;2023-01-05T00:37:51;10.50;85.00
4306;DHT22;2166;49.926;8.608;2023-01-05T00:40:21;10.50;85.10
4306;DHT22;2166;49.926;8.608;2023-01-05T00:42:50;10.50;85.00
4306;DHT22;2166;49.926;8.608;2023-01-05T00:45:20;10.50;85.00
4306;DHT22;2166;49.926;8.608;2023-01-05T00:47:48;10.60;84.90
4306;DHT22;2166;49.926;8.608;2023-01-05T00:50:27;10.50;84.80
4306;DHT22;2166;49.926;8.608;2023-01-05T00:52:55;10.50;84.80
4306;DHT22;2166;49.926;8.608;2023-01-05T00:55:25;10.50;84.80
4306;DHT22;2166;49.926;8.608;2023-01-05T00:57:55;10.50;84.80
4306;DHT22;2166;49.926;8.608;2023-01-05T01:00:23;10.60;84.80
4306;DHT22;2166;49.926;8.608;2023-01-05T01:02:56;10.60;84.80
4306;DHT22;2166;49.926;8.608;2023-01-05T01:05:25;10.60;84.80
4306;DHT22;2166;49.926;8.608;2023-01-05T01:07:55;10.60;84.70
4306;DHT22;2166;49.926;8.608;2023-01-05T01:10:24;10.60;84.60
4306;DHT22;2166;49.926;8.608;2023-01-05T01:12:55;10.60;84.70
4306;DHT22;2166;49.926;8.608;2023-01-05T01:15:24;10.60;84.80
4306;DHT22;2166;49.926;8.608;2023-01-05T01:17:52;10.60;84.80
4306;DHT22;2166;49.926;8.608;2023-01-05T01:20:21;10.60;84.90
4306;DHT22;2166;49.926;8.608;2023-01-05T01:22:51;10.60;84.90
4306;DHT22;2166;49.926;8.608;2023-01-05T01:25:21;10.60;84.90
4306;DHT22;2166;49.926;8.608;2023-01-05T01:27:52;10.60;84.90
4306;DHT22;2166;49.926;8.608;2023-01-05T01:30:22;10.70;84.90
4306;DHT22;2166;49.926;8.608;2023-01-05T01:32:53;10.70;84.90
4306;DHT22;2166;49.926;8.608;2023-01-05T01:35:22;10.80;84.90
4306;DHT22;2166;49.926;8.608;2023-01-05T01:37:50;10.80;84.80
4306;DHT22;2166;49.926;8.608;2023-01-05T01:40:19;10.80;84.80
4306;DHT22;2166;49.926;8.608;2023-01-05T01:42:47;10.80;84.80
4306;DHT22;2166;49.926;8.608;2023-01-05T01:45:16;10.90;84.70
4306;DHT22;2166;49.926;8.608;2023-01-05T01:47:48;11.00;84.70
4306;DHT22;2166;49.926;8.608;2023-01-05T01:50:18;11.00;84.60
4306;DHT22;2166;49.926;8.608;2023-01-05T01:52:47;11.00;84.40
4306;DHT22;2166;49.926;8.608;2023-01-05T01:55:16;10.90;84.20
4306;DHT22;2166;49.926;8.608;2023-01-05T01:57:45;10.90;84.20
4306;DHT22;2166;49.926;8.608;2023-01-05T02:00:14;10.90;84.40
4306;DHT22;2166;49.926;8.608;2023-01-05T02:02:50;10.90;84.50
4306;DHT22;2166;49.926;8.608;2023-01-05T02:05:23;10.90;84.50
4306;DHT22;2166;49.926;8.608;2023-01-05T02:07:52;10.90;84.60
4306;DHT22;2166;49.926;8.608;2023-01-05T02:10:23;10.90;84.60
4306;DHT22;2166;49.926;8.608;2023-01-05T02:12:57;11.00;84.60
4306;DHT22;2166;49.926;8.608;2023-01-05T02:15:32;11.00;84.60
4306;DHT22;2166;49.926;8.608;2023-01-05T02:18:12;11.00;84.70
4306;DHT22;2166;49.926;8.608;2023-01-05T02:20:50;11.00;84.70
4306;DHT22;2166;49.926;8.608;2023-01-05T02:23:30;11.00;84.70
4306;DHT22;2166;49.926;8.608;2023-01-05T02:26:19;11.00;84.60
4306;DHT22;2166;49.926;8.608;2023-01-05T02:29:00;11.10;84.60
4306;DHT22;2166;49.926;8.608;2023-01-05T02:31:35;11.10;84.60
4306;DHT22;2166;49.926;8.608;2023-01-05T02:34:06;11.10;84.40
4306;DHT22;2166;49.926;8.608;2023-01-05T02:36:41;11.10;84.30
4306;DHT22;2166;49.926;8.608;2023-01-05T02:39:14;11.20;84.10
4306;DHT22;2166;49.926;8.608;2023-01-05T02:41:47;11.10;83.90
4306;DHT22;2166;49.926;8.608;2023-01-05T02:44:18;11.10;83.80
4306;DHT22;2166;49.926;8.608;2023-01-05T02:46:59;11.10;83.70
4306;DHT22;2166;49.926;8.608;2023-01-05T02:49:28;11.10;83.60
4306;DHT22;2166;49.926;8.608;2023-01-05T02:51:58;11.10;83.60
4306;DHT22;2166;49.926;8.608;2023-01-05T02:54:28;11.10;83.50
4306;DHT22;2166;49.926;8.608;2023-01-05T02:56:59;11.20;83.50
4306;DHT22;2166;49.926;8.608;2023-01-05T02:59:32;11.20;83.50
4306;DHT22;2166;49.926;8.608;2023-01-05T03:02:05;11.20;84.10
4306;DHT22;2166;49.926;8.608;2023-01-05T03:04:37;11.20;83.90
4306;DHT22;2166;49.926;8.608;2023-01-05T03:07:08;11.20;83.90
4306;DHT22;2166;49.926;8.608;2023-01-05T03:09:39;11.20;83.70
4306;DHT22;2166;49.926;8.608;2023-01-05T03:12:14;11.20;83.50
4306;DHT22;2166;49.926;8.608;2023-01-05T03:15:02;11.20;83.30
4306;DHT22;2166;49.926;8.608;2023-01-05T03:17:38;11.10;83.20
4306;DHT22;2166;49.926;8.608;2023-01-05T03:20:07;11.10;83.30
4306;DHT22;2166;49.926;8.608;2023-01-05T03:22:35;11.10;83.10
4306;DHT22;2166;49.926;8.608;2023-01-05T03:25:22;11.00;83.10
4306;DHT22;2166;49.926;8.608;2023-01-05T03:28:09;11.00;82.80
4306;DHT22;2166;49.926;8.608;2023-01-05T03:30:57;11.00;82.80
4306;DHT22;2166;49.926;8.608;2023-01-05T03:33:47;11.10;82.50
4306;DHT22;2166;49.926;8.608;2023-01-05T03:36:39;11.10;82.40
4306;DHT22;2166;49.926;8.608;2023-01-05T03:39:09;11.10;82.20
4306;DHT22;2166;49.926;8.608;2023-01-05T03:41:39;11.20;82.30
4306;DHT22;2166;49.926;8.608;2023-01-05T03:44:08;11.20;82.10
4306;DHT22;2166;49.926;8.608;2023-01-05T03:46:38;11.20;82.00
4306;DHT22;2166;49.926;8.608;2023-01-05T03:49:10;11.10;81.90
4306;DHT22;2166;49.926;8.608;2023-01-05T03:51:39;11.10;82.00
4306;DHT22;2166;49.926;8.608;2023-01-05T03:54:09;11.00;81.90
4306;DHT22;2166;49.926;8.608;2023-01-05T03:56:40;11.00;82.00
4306;DHT22;2166;49.926;8.608;2023-01-05T03:59:08;11.00;81.60
4306;DHT22;2166;49.926;8.608;2023-01-05T04:01:38;11.10;81.30
4306;DHT22;2166;49.926;8.608;2023-01-05T04:04:12;11.10;81.00
4306;DHT22;2166;49.926;8.608;2023-01-05T04:06:40;11.10;81.10
4306;DHT22;2166;49.926;8.608;2023-01-05T04:09:10;11.00;80.60
4306;DHT22;2166;49.926;8.608;2023-01-05T04:11:40;11.00;80.30
4306;DHT22;2166;49.926;8.608;2023-01-05T04:14:08;11.00;80.20
4306;DHT22;2166;49.926;8.608;2023-01-05T04:16:37;11.00;79.90
4306;DHT22;2166;49.926;8.608;2023-01-05T04:19:14;11.00;79.90
4306;DHT22;2166;49.926;8.608;2023-01-05T04:21:42;11.00;79.60
4306;DHT22;2166;49.926;8.608;2023-01-05T04:24:12;10.90;79.10
4306;DHT22;2166;49.926;8.608;2023-01-05T04:26:43;10.90;79.10
4306;DHT22;2166;49.926;8.608;2023-01-05T04:29:11;10.90;79.00
4306;DHT22;2166;49.926;8.608;2023-01-05T04:31:43;11.00;79.30
4306;DHT22;2166;49.926;8.608;2023-01-05T04:34:13;10.90;78.80
4306;DHT22;2166;49.926;8.608;2023-01-05T04:36:43;11.00;78.70
4306;DHT22;2166;49.926;8.608;2023-01-05T04:39:15;11.00;79.00
4306;DHT22;2166;49.926;8.608;2023-01-05T04:41:43;11.00;78.60
4306;DHT22;2166;49.926;8.608;2023-01-05T04:44:16;11.00;78.30
4306;DHT22;2166;49.926;8.608;2023-01-05T04:46:45;11.00;78.30
4306;DHT22;2166;49.926;8.608;2023-01-05T04:49:17;10.90;78.50
4306;DHT22;2166;49.926;8.608;2023-01-05T04:51:47;10.90;78.00
4306;DHT22;2166;49.926;8.608;2023-01-05T04:54:18;10.90;77.90
4306;DHT22;2166;49.926;8.608;2023-01-05T04:56:46;10.90;77.90
4306;DHT22;2166;49.926;8.608;2023-01-05T04:59:14;10.90;78.00
4306;DHT22;2166;49.926;8.608;2023-01-05T05:01:43;10.90;77.80
4306;DHT22;2166;49.926;8.608;2023-01-05T05:04:14;10.80;77.70
4306;DHT22;2166;49.926;8.608;2023-01-05T05:06:45;10.90;78.00
4306;DHT22;2166;49.926;8.608;2023-01-05T05:09:14;10.90;77.60
4306;DHT22;2166;49.926;8.608;2023-01-05T05:11:44;10.90;77.60
4306;DHT22;2166;49.926;8.608;2023-01-05T05:14:13;10.90;77.90
4306;DHT22;2166;49.926;8.608;2023-01-05T05:16:42;10.90;77.80
4306;DHT22;2166;49.926;8.608;2023-01-05T05:19:10;10.90;78.00
4306;DHT22;2166;49.926;8.608;2023-01-05T05:21:39;10.90;77.80
4306;DHT22;2166;49.926;8.608;2023-01-05T05:24:09;10.90;77.70
4306;DHT22;2166;49.926;8.608;2023-01-05T05:26:41;10.90;77.90
4306;DHT22;2166;49.926;8.608;2023-01-05T05:29:10;10.90;77.80
4306;DHT22;2166;49.926;8.608;2023-01-05T05:31:38;10.90;78.10
4306;DHT22;2166;49.926;8.608;2023-01-05T05:34:06;10.90;77.70
4306;DHT22;2166;49.926;8.608;2023-01-05T05:36:34;10.80;77.90
4306;DHT22;2166;49.926;8.608;2023-01-05T05:39:03;10.80;78.10
4306;DHT22;2166;49.926;8.608;2023-01-05T05:41:33;10.80;78.10
4306;DHT22;2166;49.926;8.608;2023-01-05T05:44:01;10.80;78.10
4306;DHT22;2166;49.926;8.608;2023-01-05T05:46:30;10.80;78.00
4306;DHT22;2166;49.926;8.608;2023-01-05T05:48:58;10.80;78.00
4306;DHT22;2166;49.926;8.608;2023-01-05T05:51:26;10.80;78.00
4306;DHT22;2166;49.926;8.608;2023-01-05T05:53:55;10.80;77.90
4306;DHT22;2166;49.926;8.608;2023-01-05T05:56:23;10.80;77.70
4306;DHT22;2166;49.926;8.608;2023-01-05T05:58:53;10.80;77.90
4306;DHT22;2166;49.926;8.608;2023-01-05T06:01:27;10.80;77.80
4306;DHT22;2166;49.926;8.608;2023-01-05T06:03:56;10.80;77.70
4306;DHT22;2166;49.926;8.608;2023-01-05T06:06:24;10.80;77.70
4306;DHT22;2166;49.926;8.608;2023-01-05T06:08:53;10.80;77.80
4306;DHT22;2166;49.926;8.608;2023-01-05T06:11:21;10.90;77.60
4306;DHT22;2166;49.926;8.608;2023-01-05T06:13:50;10.90;77.80
4306;DHT22;2166;49.926;8.608;2023-01-05T06:16:19;10.80;77.70
4306;DHT22;2166;49.926;8.608;2023-01-05T06:18:48;10.80;77.50
4306;DHT22;2166;49.926;8.608;2023-01-05T06:21:16;10.80;77.60
4306;DHT22;2166;49.926;8.608;2023-01-05T06:23:45;10.90;77.60
4306;DHT22;2166;49.926;8.608;2023-01-05T06:26:13;10.90;77.40
4306;DHT22;2166;49.926;8.608;2023-01-05T06:28:41;10.90;77.30
4306;DHT22;2166;49.926;8.608;2023-01-05T06:31:10;10.90;77.40
4306;DHT22;2166;49.926;8.608;2023-01-05T06:33:39;10.90;77.30
4306;DHT22;2166;49.926;8.608;2023-01-05T06:36:07;10.90;77.30
4306;DHT22;2166;49.926;8.608;2023-01-05T06:38:37;10.90;77.20
4306;DHT22;2166;49.926;8.608;2023-01-05T06:41:05;10.90;77.00
4306;DHT22;2166;49.926;8.608;2023-01-05T06:43:33;10.90;76.90
4306;DHT22;2166;49.926;8.608;2023-01-05T06:46:01;10.90;77.00
4306;DHT22;2166;49.926;8.608;2023-01-05T06:48:30;10.90;76.80
4306;DHT22;2166;49.926;8.608;2023-01-05T06:50:59;11.00;76.80
4306;DHT22;2166;49.926;8.608;2023-01-05T06:53:28;11.00;76.80
4306;DHT22;2166;49.926;8.608;2023-01-05T06:55:56;11.00;76.80
4306;DHT22;2166;49.926;8.608;2023-01-05T06:58:25;10.90;76.70
4306;DHT22;2166;49.926;8.608;2023-01-05T07:00:53;10.90;76.90
4306;DHT22;2166;49.926;8.608;2023-01-05T07:03:21;10.90;77.10
4306;DHT22;2166;49.926;8.608;2023-01-05T07:05:50;10.90;77.00
4306;DHT22;2166;49.926;8.608;2023-01-05T07:08:19;10.90;77.10
4306;DHT22;2166;49.926;8.608;2023-01-05T07:10:47;10.90;77.10
4306;DHT22;2166;49.926;8.608;2023-01-05T07:13:16;10.90;77.00
4306;DHT22;2166;49.926;8.608;2023-01-05T07:15:44;10.90;77.10
4306;DHT22;2166;49.926;8.608;2023-01-05T07:18:12;10.80;77.20
4306;DHT22;2166;49.926;8.608;2023-01-05T07:20:40;10.80;77.30
4306;DHT22;2166;49.926;8.608;2023-01-05T07:23:08;10.80;77.30
4306;DHT22;2166;49.926;8.608;2023-01-05T07:25:38;10.70;77.30
4306;DHT22;2166;49.926;8.608;2023-01-05T07:28:06;10.70;77.30
4306;DHT22;2166;49.926;8.608;2023-01-05T07:30:34;10.70;77.40
4306;DHT22;2166;49.926;8.608;2023-01-05T07:33:02;10.70;77.60
4306;DHT22;2166;49.926;8.608;2023-01-05T07:35:31;10.70;77.80
4306;DHT22;2166;49.926;8.608;2023-01-05T07:37:59;10.70;77.90
4306;DHT22;2166;49.926;8.608;2023-01-05T07:40:27;10.70;78.30
4306;DHT22;2166;49.926;8.608;2023-01-05T07:42:57;10.60;78.60
4306;DHT22;2166;49.926;8.608;2023-01-05T07:45:24;10.60;78.90
4306;DHT22;2166;49.926;8.608;2023-01-05T07:47:53;10.60;79.00
4306;DHT22;2166;49.926;8.608;2023-01-05T07:50:21;10.50;79.20
4306;DHT22;2166;49.926;8.608;2023-01-05T07:52:49;10.50;79.30
4306;DHT22;2166;49.926;8.608;2023-01-05T07:55:17;10.40;79.50
4306;DHT22;2166;49.926;8.608;2023-01-05T07:57:45;10.40;79.60
4306;DHT22;2166;49.926;8.608;2023-01-05T08:00:19;10.40;79.70
4306;DHT22;2166;49.926;8.608;2023-01-05T08:02:47;10.30;79.90
4306;DHT22;2166;49.926;8.608;2023-01-05T08:05:15;10.30;79.90
4306;DHT22;2166;49.926;8.608;2023-01-05T08:07:43;10.40;80.00
4306;DHT22;2166;49.926;8.608;2023-01-05T08:10:12;10.40;79.90
4306;DHT22;2166;49.926;8.608;2023-01-05T08:12:59;10.40;80.10
4306;DHT22;2166;49.926;8.608;2023-01-05T08:15:47;10.40;80.10
4306;DHT22;2166;49.926;8.608;2023-01-05T08:18:17;10.40;80.20
4306;DHT22;2166;49.926;8.608;2023-01-05T08:20:49;10.40;80.20
4306;DHT22;2166;49.926;8.608;2023-01-05T08:23:19;10.40;80.20
4306;DHT22;2166;49.926;8.608;2023-01-05T08:25:52;10.40;80.10
4306;DHT22;2166;49.926;8.608;2023-01-05T08:28:20;10.50;80.00
4306;DHT22;2166;49.926;8.608;2023-01-05T08:30:50;10.50;80.00
4306;DHT22;2166;49.926;8.608;2023-01-05T08:33:18;10.60;79.80
4306;DHT22;2166;49.926;8.608;2023-01-05T08:35:46;10.70;79.80
4306;DHT22;2166;49.926;8.608;2023-01-05T08:38:15;10.80;79.60
4306;DHT22;2166;49.926;8.608;2023-01-05T08:40:43;10.80;79.50
4306;DHT22;2166;49.926;8.608;2023-01-05T08:43:11;10.90;79.20
4306;DHT22;2166;49.926;8.608;2023-01-05T08:45:39;10.90;79.00
4306;DHT22;2166;49.926;8.608;2023-01-05T08:48:11;11.00;78.80
4306;DHT22;2166;49.926;8.608;2023-01-05T08:50:39;11.20;78.90
4306;DHT22;2166;49.926;8.608;2023-01-05T08:53:07;11.40;78.00
4306;DHT22;2166;49.926;8.608;2023-01-05T08:55:35;11.40;77.70
4306;DHT22;2166;49.926;8.608;2023-01-05T08:58:04;11.40;77.60
4306;DHT22;2166;49.926;8.608;2023-01-05T09:00:33;11.50;77.80
4306;DHT22;2166;49.926;8.608;2023-01-05T09:03:01;11.50;77.60
4306;DHT22;2166;49.926;8.608;2023-01-05T09:05:35;11.50;77.60
4306;DHT22;2166;49.926;8.608;2023-01-05T09:08:04;11.60;77.30
4306;DHT22;2166;49.926;8.608;2023-01-05T09:10:32;11.50;77.40
4306;DHT22;2166;49.926;8.608;2023-01-05T09:13:01;11.50;77.60
4306;DHT22;2166;49.926;8.608;2023-01-05T09:15:31;11.50;77.50
4306;DHT22;2166;49.926;8.608;2023-01-05T09:18:01;11.60;77.50
4306;DHT22;2166;49.926;8.608;2023-01-05T09:20:29;11.50;77.50
4306;DHT22;2166;49.926;8.608;2023-01-05T09:23:06;11.50;77.40
4306;DHT22;2166;49.926;8.608;2023-01-05T09:25:37;11.50;77.50
4306;DHT22;2166;49.926;8.608;2023-01-05T09:28:05;11.50;77.40
4306;DHT22;2166;49.926;8.608;2023-01-05T09:30:34;11.50;77.30
4306;DHT22;2166;49.926;8.608;2023-01-05T09:33:12;11.50;77.60
4306;DHT22;2166;49.926;8.608;2023-01-05T09:35:40;11.60;77.60
4306;DHT22;2166;49.926;8.608;2023-01-05T09:38:10;11.60;77.30
4306;DHT22;2166;49.926;8.608;2023-01-05T09:40:40;11.70;77.30
4306;DHT22;2166;49.926;8.608;2023-01-05T09:43:10;11.70;77.30
4306;DHT22;2166;49.926;8.608;2023-01-05T09:45:44;11.80;77.20
4306;DHT22;2166;49.926;8.608;2023-01-05T09:48:17;11.90;77.00
4306;DHT22;2166;49.926;8.608;2023-01-05T09:50:49;12.00;77.20
4306;DHT22;2166;49.926;8.608;2023-01-05T09:53:35;12.00;76.90
4306;DHT22;2166;49.926;8.608;2023-01-05T09:56:09;11.80;77.20
4306;DHT22;2166;49.926;8.608;2023-01-05T09:59:02;11.70;77.80
4306;DHT22;2166;49.926;8.608;2023-01-05T10:01:32;11.60;77.80
4306;DHT22;2166;49.926;8.608;2023-01-05T10:04:03;11.70;78.00
4306;DHT22;2166;49.926;8.608;2023-01-05T10:06:32;11.70;77.80
4306;DHT22;2166;49.926;8.608;2023-01-05T10:09:04;11.70;77.90
4306;DHT22;2166;49.926;8.608;2023-01-05T10:11:39;11.80;77.90
4306;DHT22;2166;49.926;8.608;2023-01-05T10:14:31;11.80;77.60
4306;DHT22;2166;49.926;8.608;2023-01-05T10:17:02;11.90;77.80
4306;DHT22;2166;49.926;8.608;2023-01-05T10:19:52;11.90;77.50
4306;DHT22;2166;49.926;8.608;2023-01-05T10:22:26;12.10;77.20
4306;DHT22;2166;49.926;8.608;2023-01-05T10:25:08;12.10;77.00
4306;DHT22;2166;49.926;8.608;2023-01-05T10:27:42;12.10;76.90
4306;DHT22;2166;49.926;8.608;2023-01-05T10:30:22;12.10;76.90
4306;DHT22;2166;49.926;8.608;2023-01-05T10:32:56;12.20;77.00
4306;DHT22;2166;49.926;8.608;2023-01-05T10:35:49;12.20;76.90
4306;DHT22;2166;49.926;8.608;2023-01-05T10:38:36;12.20;76.70
4306;DHT22;2166;49.926;8.608;2023-01-05T10:41:09;12.20;76.40
4306;DHT22;2166;49.926;8.608;2023-01-05T10:43:53;12.20;76.70
4306;DHT22;2166;49.926;8.608;2023-01-05T10:46:25;12.20;76.70
4306;DHT22;2166;49.926;8.608;2023-01-05T10:49:03;12.20;76.80
4306;DHT22;2166;49.926;8.608;2023-01-05T10:51:33;12.10;76.70
4306;DHT22;2166;49.926;8.608;2023-01-05T10:54:02;12.20;76.80
4306;DHT22;2166;49.926;8.608;2023-01-05T10:56:33;12.30;76.50
4306;DHT22;2166;49.926;8.608;2023-01-05T10:59:05;12.40;76.20
4306;DHT22;2166;49.926;8.608;2023-01-05T11:01:35;12.50;75.80
4306;DHT22;2166;49.926;8.608;2023-01-05T11:04:05;12.60;75.80
4306;DHT22;2166;49.926;8.608;2023-01-05T11:07:00;12.60;75.80
4306;DHT22;2166;49.926;8.608;2023-01-05T11:09:29;12.80;75.60
4306;DHT22;2166;49.926;8.608;2023-01-05T11:12:00;12.90;75.40
4306;DHT22;2166;49.926;8.608;2023-01-05T11:14:31;13.00;75.60
4306;DHT22;2166;49.926;8.608;2023-01-05T11:17:00;13.10;74.90
4306;DHT22;2166;49.926;8.608;2023-01-05T11:19:33;13.20;74.90
4306;DHT22;2166;49.926;8.608;2023-01-05T11:22:02;13.20;74.50
4306;DHT22;2166;49.926;8.608;2023-01-05T11:24:31;13.20;74.50
4306;DHT22;2166;49.926;8.608;2023-01-05T11:27:20;13.00;74.30
4306;DHT22;2166;49.926;8.608;2023-01-05T11:30:10;12.90;74.70
4306;DHT22;2166;49.926;8.608;2023-01-05T11:32:39;12.90;74.50
4306;DHT22;2166;49.926;8.608;2023-01-05T11:35:12;12.90;74.90
4306;DHT22;2166;49.926;8.608;2023-01-05T11:37:44;13.10;74.60
4306;DHT22;2166;49.926;8.608;2023-01-05T11:40:13;13.00;74.30
4306;DHT22;2166;49.926;8.608;2023-01-05T11:42:44;13.00;74.60
4306;DHT22;2166;49.926;8.608;2023-01-05T11:45:17;13.20;74.30
4306;DHT22;2166;49.926;8.608;2023-01-05T11:47:47;13.30;74.40
4306;DHT22;2166;49.926;8.608;2023-01-05T11:50:18;13.30;74.20
4306;DHT22;2166;49.926;8.608;2023-01-05T11:52:51;13.40;74.30
4306;DHT22;2166;49.926;8.608;2023-01-05T11:55:31;13.50;74.20
4306;DHT22;2166;49.926;8.608;2023-01-05T11:58:16;13.40;73.80
4306;DHT22;2166;49.926;8.608;2023-01-05T12:00:51;13.20;74.00
4306;DHT22;2166;49.926;8.608;2023-01-05T12:06:11;13.10;74.40
4306;DHT22;2166;49.926;8.608;2023-01-05T12:08:47;13.00;74.40
4306;DHT22;2166;49.926;8.608;2023-01-05T12:11:19;13.00;74.60
4306;DHT22;2166;49.926;8.608;2023-01-05T12:13:55;13.00;74.50
4306;DHT22;2166;49.926;8.608;2023-01-05T12:16:30;13.00;74.60
4306;DHT22;2166;49.926;8.608;2023-01-05T12:21:48;13.30;74.30
4306;DHT22;2166;49.926;8.608;2023-01-05T12:24:30;13.20;74.30
4306;DHT22;2166;49.926;8.608;2023-01-05T12:27:06;13.10;74.40
4306;DHT22;2166;49.926;8.608;2023-01-05T12:29:53;13.10;74.50
4306;DHT22;2166;49.926;8.608;2023-01-05T12:32:47;13.10;74.40
4306;DHT22;2166;49.926;8.608;2023-01-05T12:38:22;13.00;74.50
4306;DHT22;2166;49.926;8.608;2023-01-05T12:40:54;13.20;74.40
4306;DHT22;2166;49.926;8.608;2023-01-05T12:43:30;13.60;73.80
4306;DHT22;2166;49.926;8.608;2023-01-05T12:46:10;13.90;73.60
4306;DHT22;2166;49.926;8.608;2023-01-05T12:48:41;14.00;73.30
4306;DHT22;2166;49.926;8.608;2023-01-05T12:51:11;14.10;73.20
4306;DHT22;2166;49.926;8.608;2023-01-05T12:53:44;14.20;73.20
4306;DHT22;2166;49.926;8.608;2023-01-05T12:56:17;14.20;73.00
4306;DHT22;2166;49.926;8.608;2023-01-05T12:58:48;14.40;73.10
4306;DHT22;2166;49.926;8.608;2023-01-05T13:01:24;14.70;72.80
4306;DHT22;2166;49.926;8.608;2023-01-05T13:03:56;15.00;72.20
4306;DHT22;2166;49.926;8.608;2023-01-05T13:06:27;15.00;72.20
4306;DHT22;2166;49.926;8.608;2023-01-05T13:08:58;15.10;71.90
4306;DHT22;2166;49.926;8.608;2023-01-05T13:11:30;15.20;71.90
4306;DHT22;2166;49.926;8.608;2023-01-05T13:13:59;15.10;72.00
4306;DHT22;2166;49.926;8.608;2023-01-05T13:16:35;14.80;72.30
4306;DHT22;2166;49.926;8.608;2023-01-05T13:19:14;14.50;72.40
4306;DHT22;2166;49.926;8.608;2023-01-05T13:21:44;14.40;72.70
4306;DHT22;2166;49.926;8.608;2023-01-05T13:24:20;14.40;72.70
4306;DHT22;2166;49.926;8.608;2023-01-05T13:26:53;14.20;73.40
4306;DHT22;2166;49.926;8.608;2023-01-05T13:29:23;13.90;73.20
4306;DHT22;2166;49.926;8.608;2023-01-05T13:34:45;13.60;73.90
4306;DHT22;2166;49.926;8.608;2023-01-05T13:37:26;13.90;73.60
4306;DHT22;2166;49.926;8.608;2023-01-05T13:42:52;14.60;73.30
4306;DHT22;2166;49.926;8.608;2023-01-05T13:45:28;15.00;72.40
4306;DHT22;2166;49.926;8.608;2023-01-05T13:48:12;14.90;72.30
4306;DHT22;2166;49.926;8.608;2023-01-05T13:53:52;14.80;72.00
4306;DHT22;2166;49.926;8.608;2023-01-05T13:56:47;14.50;72.50
4306;DHT22;2166;49.926;8.608;2023-01-05T14:02:39;13.90;73.10
4306;DHT22;2166;49.926;8.608;2023-01-05T14:05:13;13.80;73.70
4306;DHT22;2166;49.926;8.608;2023-01-05T14:07:43;13.80;73.90
4306;DHT22;2166;49.926;8.608;2023-01-05T14:10:20;13.90;73.70
4306;DHT22;2166;49.926;8.608;2023-01-05T14:12:50;13.90;73.50
4306;DHT22;2166;49.926;8.608;2023-01-05T14:15:26;13.50;73.80
4306;DHT22;2166;49.926;8.608;2023-01-05T14:17:55;13.30;74.40
4306;DHT22;2166;49.926;8.608;2023-01-05T14:20:35;13.00;74.70
4306;DHT22;2166;49.926;8.608;2023-01-05T14:25:53;12.30;75.90
4306;DHT22;2166;49.926;8.608;2023-01-05T14:28:38;12.00;76.70
4306;DHT22;2166;49.926;8.608;2023-01-05T14:34:13;11.60;77.40
4306;DHT22;2166;49.926;8.608;2023-01-05T14:36:44;11.50;77.60
4306;DHT22;2166;49.926;8.608;2023-01-05T14:39:23;11.50;77.80
4306;DHT22;2166;49.926;8.608;2023-01-05T14:41:59;11.40;77.80
4306;DHT22;2166;49.926;8.608;2023-01-05T14:44:29;11.40;78.00
4306;DHT22;2166;49.926;8.608;2023-01-05T14:46:59;11.40;78.00
4306;DHT22;2166;49.926;8.608;2023-01-05T14:49:30;11.30;78.10
4306;DHT22;2166;49.926;8.608;2023-01-05T14:51:59;11.40;78.10
4306;DHT22;2166;49.926;8.608;2023-01-05T14:54:34;11.40;78.00
4306;DHT22;2166;49.926;8.608;2023-01-05T15:00:00;11.40;78.10
4306;DHT22;2166;49.926;8.608;2023-01-05T15:02:32;11.40;78.30
4306;DHT22;2166;49.926;8.608;2023-01-05T15:05:03;11.40;78.30
4306;DHT22;2166;49.926;8.608;2023-01-05T15:07:36;11.50;78.40
4306;DHT22;2166;49.926;8.608;2023-01-05T15:10:15;11.50;78.40
4306;DHT22;2166;49.926;8.608;2023-01-05T15:12:55;11.50;78.50
4306;DHT22;2166;49.926;8.608;2023-01-05T15:15:30;11.50;78.50
4306;DHT22;2166;49.926;8.608;2023-01-05T15:18:10;11.50;78.60
4306;DHT22;2166;49.926;8.608;2023-01-05T15:20:47;11.50;78.60
4306;DHT22;2166;49.926;8.608;2023-01-05T15:23:25;11.50;78.60
4306;DHT22;2166;49.926;8.608;2023-01-05T15:26:09;11.60;78.50
4306;DHT22;2166;49.926;8.608;2023-01-05T15:31:34;11.50;78.50
4306;DHT22;2166;49.926;8.608;2023-01-05T15:34:05;11.60;78.50
4306;DHT22;2166;49.926;8.608;2023-01-05T15:36:45;11.60;78.40
4306;DHT22;2166;49.926;8.608;2023-01-05T15:39:27;11.60;78.40
4306;DHT22;2166;49.926;8.608;2023-01-05T15:41:57;11.70;78.40
4306;DHT22;2166;49.926;8.608;2023-01-05T15:44:34;11.60;78.50
4306;DHT22;2166;49.926;8.608;2023-01-05T15:47:05;11.60;78.60
4306;DHT22;2166;49.926;8.608;2023-01-05T15:49:35;11.50;78.80
4306;DHT22;2166;49.926;8.608;2023-01-05T15:52:08;11.40;78.90
4306;DHT22;2166;49.926;8.608;2023-01-05T15:54:44;11.40;79.00
4306;DHT22;2166;49.926;8.608;2023-01-05T15:57:23;11.40;78.90
4306;DHT22;2166;49.926;8.608;2023-01-05T15:59:52;11.40;78.90
4306;DHT22;2166;49.926;8.608;2023-01-05T16:02:22;11.40;79.00
4306;DHT22;2166;49.926;8.608;2023-01-05T16:05:12;11.30;79.00
4306;DHT22;2166;49.926;8.608;2023-01-05T16:07:41;11.30;79.10
4306;DHT22;2166;49.926;8.608;2023-01-05T16:10:14;11.30;79.00
4306;DHT22;2166;49.926;8.608;2023-01-05T16:12:44;11.30;79.00
4306;DHT22;2166;49.926;8.608;2023-01-05T16:15:15;11.30;79.10
4306;DHT22;2166;49.926;8.608;2023-01-05T16:17:50;11.20;79.10
4306;DHT22;2166;49.926;8.608;2023-01-05T16:20:25;11.10;79.10
4306;DHT22;2166;49.926;8.608;2023-01-05T16:22:57;11.10;79.10
4306;DHT22;2166;49.926;8.608;2023-01-05T16:25:47;11.00;79.20
4306;DHT22;2166;49.926;8.608;2023-01-05T16:29:17;11.00;79.20
4306;DHT22;2166;49.926;8.608;2023-01-05T16:31:56;11.00;79.20
4306;DHT22;2166;49.926;8.608;2023-01-05T16:34:27;11.10;79.10
4306;DHT22;2166;49.926;8.608;2023-01-05T16:36:57;11.10;79.10
4306;DHT22;2166;49.926;8.608;2023-01-05T16:39:34;11.10;79.10
4306;DHT22;2166;49.926;8.608;2023-01-05T16:42:03;11.10;79.00
4306;DHT22;2166;49.926;8.608;2023-01-05T16:44:51;11.10;79.00
4306;DHT22;2166;49.926;8.608;2023-01-05T16:47:31;11.10;78.80
4306;DHT22;2166;49.926;8.608;2023-01-05T16:50:23;11.00;78.90
4306;DHT22;2166;49.926;8.608;2023-01-05T16:53:02;11.00;78.80
4306;DHT22;2166;49.926;8.608;2023-01-05T16:55:31;10.90;78.90
4306;DHT22;2166;49.926;8.608;2023-01-05T16:58:04;10.90;79.00
4306;DHT22;2166;49.926;8.608;2023-01-05T17:00:34;10.90;78.90
4306;DHT22;2166;49.926;8.608;2023-01-05T17:03:24;10.90;78.80
4306;DHT22;2166;49.926;8.608;2023-01-05T17:05:54;11.00;78.70
4306;DHT22;2166;49.926;8.608;2023-01-05T17:08:23;11.00;78.70
4306;DHT22;2166;49.926;8.608;2023-01-05T17:10:53;11.00;78.60